Terminal Aerodrome Forecast
Issued by NWS Cleveland, OH

Home | Current Version | Previous Version | Text Only | Print | Product List | Glossary On
Versions: 1 2 3 4 5 6 7 8 9 10 11 12 13 14 15 16 17 18
000
FTUS41 KCLE 212048 AAB
TAFYNG
TAF AMD
KYNG 212048Z 2121/2218 19005KT 5SM BR OVC015
     FM220200 17007KT 3SM BR OVC003
      TEMPO 2208/2212 -SHRA
     FM221600 17007KT 5SM BR OVC015=

USA.gov is the U.S. government's official web portal to all federal, state and local government web resources and services.